CHIUDI BANNER

Seguici su twitter Seguici su facebook
LIVE Streaming HD
Get Adobe Flash player
Animazione Masse d'Aria e Nubi
satellite e T nubi
DNA SURF SHOP
Consigli pubblicitari di Google
Dati meteo stazione (refresh automatico ogni minuto)
Senigallia VENTO: VELOCITÀ   PIOGGIA: QTA GIORNO TEMPERATURA: ATTUALE
SPOT: Darsena Di Senigallia RAFFICA MASSIMA: QTA MENSILE: MASSIMA:
VELOCITÀ MEDIA: QTA ANNUALE: MINIMA:
DIREZIONE: UMIDITÀ: WIND CHILL:
TIPO: DEW POINT:
BEAUFORT: PRESSIONE:
I nostri partner
Senigallia nelle ultime ore
Applica filtri in visualizzazione Intervallo delle letture nelle ultime

Ora Direzione Vento Velocita' Vento Media Vento Raffica Max. Temperatura Wind Chill Pioggia Pressione
03:37:28288 °(WNW)7.8 Kts4.3 Kts13.9 Kts21.1 °C20.4 °C0.4 mm1008 Hpa
03:33:08278 °(W)7 Kts2.6 Kts13.9 Kts21.1 °C21.1 °C0.4 mm1008.1 Hpa
03:27:51292 °(WNW)1.7 Kts5.2 Kts13.9 Kts21.2 °C20.1 °C0.4 mm1008 Hpa
03:22:35294 °(WNW)3.5 Kts7.8 Kts13.9 Kts21.2 °C18.7 °C0.4 mm1008 Hpa
03:17:20277 °(W)12.2 Kts8.7 Kts13.9 Kts21.4 °C18.6 °C0.4 mm1008 Hpa
03:13:07259 °(W)9.6 Kts8.7 Kts13.9 Kts21.7 °C19 °C0.4 mm1007.9 Hpa
03:07:51274 °(W)7 Kts7 Kts13.9 Kts21.9 °C20 °C0.2 mm1007.9 Hpa
03:02:35272 °(W)7 Kts4.3 Kts9.6 Kts21.9 °C21.3 °C0.2 mm1008 Hpa
02:57:19250 °(WSW)2.6 Kts3.5 Kts9.6 Kts21.9 °C21.9 °C0 mm1008 Hpa
02:53:07240 °(WSW)4.3 Kts3.5 Kts9.6 Kts21.7 °C21.7 °C0 mm1008.2 Hpa
02:47:52253 °(WSW)1.7 Kts3.5 Kts9.6 Kts21.7 °C21.7 °C0 mm1008.2 Hpa
02:42:48231 °(SW)3.5 Kts3.5 Kts9.6 Kts21.7 °C21.7 °C0 mm1008.2 Hpa
02:37:27295 °(WNW)1.7 Kts4.3 Kts9.6 Kts21.9 °C21.3 °C0 mm1008.2 Hpa
02:32:13248 °(WSW)4.3 Kts4.3 Kts9.6 Kts21.9 °C21.3 °C0 mm1008.3 Hpa
02:28:01259 °(W)4.3 Kts3.5 Kts9.6 Kts21.9 °C21.9 °C0 mm1008.3 Hpa
02:22:45252 °(WSW)6.1 Kts3.5 Kts9.6 Kts21.9 °C21.9 °C0 mm1008.4 Hpa
02:17:31279 °(W)5.2 Kts4.3 Kts9.6 Kts22 °C21.4 °C0 mm1008.5 Hpa
02:12:15267 °(W)0.9 Kts4.3 Kts9.6 Kts22.1 °C21.5 °C0 mm1008.4 Hpa
02:08:03250 °(WSW)3.5 Kts4.3 Kts9.6 Kts22.1 °C21.5 °C0 mm1008.4 Hpa
02:02:48278 °(W)7.8 Kts3.5 Kts9.6 Kts22.2 °C22.2 °C0 mm1008.4 Hpa
01:57:34244 °(WSW)2.6 Kts3.5 Kts9.6 Kts22.2 °C22.2 °C0 mm1008.4 Hpa
01:52:17242 °(WSW)4.3 Kts2.6 Kts9.6 Kts22.4 °C22.4 °C0 mm1008.4 Hpa
01:48:05242 °(WSW)4.3 Kts4.3 Kts9.6 Kts22.4 °C21.7 °C0 mm1008.5 Hpa
01:43:09248 °(WSW)2.6 Kts5.2 Kts9.6 Kts22.4 °C21.4 °C0 mm1008.4 Hpa